Time;durP1;ratioP1;P1;durP2;ratioP2;P2;SDS_P1;SDS_P2;PMS_P1;PMS_P2;Temp;Humidity;BMP_temperature;BMP_pressure;BME280_temperature;BME280_humidity;BME280_pressure;Samples;Min_cycle;Max_cycle;Signal;HPM_P1;HPM_P2
2022/12/08 00:01:28;;;;;;;3.60;2.27;;;;;;;-0.09;100.00;95859.13;5069715;28;20232;-78
2022/12/08 00:03:56;;;;;;;2.33;1.80;;;;;;;-0.11;100.00;95860.28;5048615;28;20232;-78
2022/12/08 00:09:24;;;;;;;3.40;2.20;;;;;;;-0.08;100.00;95855.44;5038297;28;20232;-78
2022/12/08 00:11:56;;;;;;;4.30;2.00;;;;;;;-0.12;100.00;95859.44;5047824;28;20237;-78
2022/12/08 00:14:26;;;;;;;2.83;1.70;;;;;;;-0.19;100.00;95855.03;5045399;28;20217;-78
2022/12/08 00:16:54;;;;;;;2.50;1.80;;;;;;;-0.28;100.00;95853.44;5052202;28;20250;-78
2022/12/08 00:19:21;;;;;;;4.10;2.17;;;;;;;-0.32;100.00;95847.63;5061512;28;20241;-78
2022/12/08 00:21:48;;;;;;;2.50;1.80;;;;;;;-0.41;100.00;95827.47;5067371;28;20221;-78
2022/12/08 00:24:15;;;;;;;3.47;2.30;;;;;;;-0.34;100.00;95839.00;5061807;28;20249;-78
2022/12/08 00:26:42;;;;;;;3.13;2.17;;;;;;;-0.31;100.00;95817.44;5048394;28;20203;-78
2022/12/08 00:29:11;;;;;;;3.60;2.20;;;;;;;-0.15;100.00;95827.94;5046234;28;20202;-78
2022/12/08 00:31:38;;;;;;;2.60;1.90;;;;;;;-0.16;100.00;95825.47;5068104;28;20209;-78
2022/12/08 00:34:06;;;;;;;2.47;1.80;;;;;;;-0.26;100.00;95815.13;5066490;28;20216;-78
2022/12/08 00:36:33;;;;;;;2.70;1.93;;;;;;;-0.17;100.00;95816.69;5041997;28;20205;-78
2022/12/08 00:39:00;;;;;;;3.70;2.17;;;;;;;-0.21;100.00;95815.41;5048939;28;20197;-78
2022/12/08 00:44:18;;;;;;;2.70;1.90;;;;;;;-0.21;100.00;95802.13;5044481;28;20213;-77
2022/12/08 00:46:47;;;;;;;3.33;1.93;;;;;;;-0.23;100.00;95806.78;5037208;28;20203;-78
2022/12/08 00:49:15;;;;;;;2.43;1.60;;;;;;;-0.24;100.00;95801.66;5050198;28;20202;-77
2022/12/08 00:51:42;;;;;;;2.60;1.90;;;;;;;-0.25;100.00;95800.81;5050506;28;20284;-78
2022/12/08 00:54:10;;;;;;;6.80;1.63;;;;;;;-0.22;100.00;95805.78;5063295;28;20232;-78
2022/12/08 00:56:37;;;;;;;2.80;1.93;;;;;;;-0.23;100.00;95803.31;5044062;28;20237;-78
2022/12/08 00:59:05;;;;;;;2.30;1.60;;;;;;;-0.22;100.00;95800.47;5049214;28;20198;-78
2022/12/08 01:01:34;;;;;;;2.20;1.70;;;;;;;-0.28;100.00;95801.19;5054487;28;20225;-77
2022/12/08 01:04:03;;;;;;;2.73;1.67;;;;;;;-0.40;100.00;95778.72;5048676;28;20209;-78
2022/12/08 01:06:31;;;;;;;2.60;1.70;;;;;;;-0.32;100.00;95799.88;5046766;28;20202;-77
2022/12/08 01:08:58;;;;;;;3.47;1.83;;;;;;;-0.19;100.00;95794.00;5053067;28;20205;-78
2022/12/08 01:11:25;;;;;;;1.60;1.50;;;;;;;-0.22;100.00;95781.91;5065819;28;20235;-78
2022/12/08 01:13:54;;;;;;;1.90;1.50;;;;;;;-0.34;100.00;95793.91;5056145;28;20191;-78
2022/12/08 01:16:22;;;;;;;2.80;1.60;;;;;;;-0.31;100.00;95798.06;5051041;28;20204;-77
2022/12/08 01:18:51;;;;;;;4.57;1.83;;;;;;;-0.45;100.00;95797.81;5053719;28;20233;-78
2022/12/08 01:21:19;;;;;;;4.73;2.03;;;;;;;-0.64;100.00;95782.38;5047657;28;20236;-78
2022/12/08 01:23:47;;;;;;;2.50;1.80;;;;;;;-0.59;100.00;95805.69;5052436;28;20198;-78
2022/12/08 01:26:17;;;;;;;3.67;1.90;;;;;;;-0.64;100.00;95797.44;5045679;28;20206;-78
2022/12/08 01:28:45;;;;;;;2.40;1.70;;;;;;;-0.57;100.00;95798.41;5064996;28;20186;-78
2022/12/08 01:31:13;;;;;;;2.93;1.90;;;;;;;-0.64;100.00;95800.91;5042710;28;20208;-78
2022/12/08 01:33:41;;;;;;;3.13;2.13;;;;;;;-0.79;100.00;95798.19;5048681;28;20213;-78
2022/12/08 01:36:18;;;;;;;3.90;2.00;;;;;;;-0.66;100.00;95810.03;5069446;28;20202;-78
2022/12/08 01:38:45;;;;;;;2.47;1.80;;;;;;;-0.63;100.00;95801.75;5051275;28;20212;-78
2022/12/08 01:41:14;;;;;;;2.93;1.77;;;;;;;-0.62;100.00;95803.41;5043128;28;20220;-78
2022/12/08 01:44:03;;;;;;;3.27;1.90;;;;;;;-0.59;100.00;95805.69;5052055;28;20284;-77
2022/12/08 01:46:32;;;;;;;2.93;2.10;;;;;;;-0.60;100.00;95809.38;5052625;28;20210;-78
2022/12/08 01:49:03;;;;;;;3.97;2.03;;;;;;;-0.58;100.00;95810.00;5053643;28;20206;-78
2022/12/08 01:51:35;;;;;;;3.60;2.03;;;;;;;-0.57;100.00;95806.34;5059157;28;20209;-77
2022/12/08 01:54:05;;;;;;;3.13;1.97;;;;;;;-0.56;100.00;95797.41;5040590;28;20293;-77
2022/12/08 01:56:37;;;;;;;2.43;2.00;;;;;;;-0.57;100.00;95806.34;5050537;28;20237;-77
2022/12/08 01:59:06;;;;;;;2.87;2.00;;;;;;;-0.55;100.00;95801.69;5054278;28;20206;-77
2022/12/08 02:01:33;;;;;;;4.70;2.20;;;;;;;-0.57;100.00;95796.56;5058073;28;20229;-77
2022/12/08 02:04:03;;;;;;;2.80;1.93;;;;;;;-0.55;100.00;95793.75;5050658;28;20210;-78
2022/12/08 02:06:34;;;;;;;3.67;2.00;;;;;;;-0.56;100.00;95792.91;5063045;28;20213;-78
2022/12/08 02:09:03;;;;;;;3.47;2.23;;;;;;;-0.63;100.00;95791.16;5051566;28;20229;-78
2022/12/08 02:11:30;;;;;;;3.20;2.10;;;;;;;-0.69;100.00;95775.94;5052752;28;20309;-78
2022/12/08 02:14:00;;;;;;;3.33;1.90;;;;;;;-0.73;100.00;95769.31;5051154;28;20195;-77
2022/12/08 02:16:38;;;;;;;2.33;2.03;;;;;;;-0.69;100.00;95782.06;5051154;28;20210;-78
2022/12/08 02:19:32;;;;;;;3.00;2.00;;;;;;;-0.72;100.00;95782.41;5046790;28;20237;-78
2022/12/08 02:22:09;;;;;;;3.37;2.00;;;;;;;-0.79;100.00;95776.16;5060113;28;20225;-78
2022/12/08 02:24:40;;;;;;;3.87;2.20;;;;;;;-0.79;100.00;95770.84;5051878;28;20202;-78
2022/12/08 02:27:28;;;;;;;3.00;1.90;;;;;;;-0.85;100.00;95780.31;5064998;28;20203;-78
2022/12/08 02:30:18;;;;;;;3.47;2.03;;;;;;;-0.85;100.00;95763.63;5064776;28;20229;-78
2022/12/08 02:33:18;;;;;;;2.43;1.80;;;;;;;-0.83;100.00;95762.41;5046041;28;20288;-78
2022/12/08 02:35:56;;;;;;;2.30;1.90;;;;;;;-0.80;100.00;95762.09;5043699;28;20212;-78
2022/12/08 02:38:33;;;;;;;3.30;2.10;;;;;;;-0.78;100.00;95757.44;5062934;28;20201;-78
2022/12/08 02:41:13;;;;;;;5.43;2.53;;;;;;;-0.84;100.00;95754.63;5071034;28;20235;-78
2022/12/08 02:43:44;;;;;;;4.33;1.97;;;;;;;-0.88;100.00;95756.81;5037389;28;20225;-78
2022/12/08 02:46:16;;;;;;;2.93;2.27;;;;;;;-0.94;100.00;95752.22;5041854;28;20206;-78
2022/12/08 02:48:43;;;;;;;3.10;2.40;;;;;;;-1.00;100.00;95752.06;5050261;28;20332;-78
2022/12/08 02:51:12;;;;;;;3.77;2.27;;;;;;;-0.99;100.00;95743.13;5067037;28;20205;-78
2022/12/08 02:53:40;;;;;;;2.60;2.07;;;;;;;-1.01;100.00;95738.00;5055230;28;20205;-78
2022/12/08 02:56:17;;;;;;;2.57;1.90;;;;;;;-1.04;100.00;95740.19;5050252;28;20204;-78
2022/12/08 02:59:10;;;;;;;3.73;2.47;;;;;;;-1.04;100.00;95740.19;5048395;28;20284;-78
2022/12/08 03:02:08;;;;;;;4.53;2.83;;;;;;;-1.10;100.00;95739.03;5034425;28;20221;-78
2022/12/08 03:04:45;;;;;;;5.20;2.37;;;;;;;-1.17;100.00;95735.44;5048554;28;20228;-78
2022/12/08 03:07:22;;;;;;;4.23;2.40;;;;;;;-1.18;100.00;95728.47;5047729;28;20244;-78
2022/12/08 03:09:54;;;;;;;4.00;2.30;;;;;;;-1.17;100.00;95730.97;5043124;28;20304;-78
2022/12/08 03:12:28;;;;;;;5.23;2.33;;;;;;;-1.22;100.00;95703.34;5050612;28;20288;-78
2022/12/08 03:15:00;;;;;;;3.57;2.60;;;;;;;-1.19;100.00;95709.13;5048017;28;20229;-78
2022/12/08 03:17:29;;;;;;;4.07;2.67;;;;;;;-1.17;100.00;95708.94;5067730;28;20272;-78
2022/12/08 03:20:01;;;;;;;3.57;2.20;;;;;;;-1.17;100.00;95714.25;5041947;28;20237;-78
2022/12/08 03:22:30;;;;;;;4.53;2.53;;;;;;;-1.17;100.00;95715.06;5045976;28;20254;-78
2022/12/08 03:24:58;;;;;;;4.07;2.93;;;;;;;-1.19;100.00;95714.41;5048070;28;20218;-78
2022/12/08 03:27:28;;;;;;;6.60;3.60;;;;;;;-1.29;100.00;95713.81;5049839;28;20278;-77
2022/12/08 03:29:58;;;;;;;7.17;4.33;;;;;;;-1.28;100.00;95710.19;5058162;28;20207;-78
2022/12/08 03:32:33;;;;;;;8.80;5.30;;;;;;;-1.31;100.00;95715.00;5051493;28;20197;-78
2022/12/08 03:35:03;;;;;;;5.17;3.60;;;;;;;-1.28;100.00;95709.34;5067697;28;20203;-78
2022/12/08 03:37:31;;;;;;;5.20;3.37;;;;;;;-1.25;100.00;95707.16;5069325;28;20213;-78
2022/12/08 03:39:58;;;;;;;5.00;3.30;;;;;;;-1.24;100.00;95698.22;5044820;28;20241;-78
2022/12/08 03:42:25;;;;;;;4.23;2.60;;;;;;;-1.22;100.00;95696.25;5041304;28;20281;-78
2022/12/08 03:44:52;;;;;;;4.70;3.37;;;;;;;-1.25;100.00;95699.22;5048302;28;20410;-78
2022/12/08 03:47:20;;;;;;;4.83;3.00;;;;;;;-1.24;100.00;95694.75;5065773;28;20209;-78
2022/12/08 03:49:47;;;;;;;9.33;3.83;;;;;;;-1.24;100.00;95692.09;5041992;28;20252;-78
2022/12/08 03:52:14;;;;;;;4.40;2.97;;;;;;;-1.25;100.00;95687.81;5049234;28;20194;-78
2022/12/08 03:54:42;;;;;;;3.90;2.57;;;;;;;-1.26;100.00;95692.28;5048050;28;20216;-78
2022/12/08 03:57:10;;;;;;;3.47;2.57;;;;;;;-1.25;100.00;95687.81;5046886;28;20213;-78
2022/12/08 03:59:37;;;;;;;5.93;2.80;;;;;;;-1.25;100.00;95679.84;5048858;28;20247;-78
2022/12/08 04:02:06;;;;;;;3.73;2.33;;;;;;;-1.26;100.00;95679.03;5052091;28;20221;-78
2022/12/08 04:04:35;;;;;;;4.60;2.83;;;;;;;-1.25;100.00;95674.56;5049690;28;20201;-78
2022/12/08 04:07:02;;;;;;;4.53;2.53;;;;;;;-1.24;100.00;95679.69;5047140;28;20252;-78
2022/12/08 04:09:29;;;;;;;3.40;2.20;;;;;;;-1.22;100.00;95668.94;5042861;28;20270;-78
2022/12/08 04:11:57;;;;;;;3.67;2.80;;;;;;;-1.24;100.00;95670.91;5049598;28;20218;-78
2022/12/08 04:14:24;;;;;;;3.67;2.33;;;;;;;-1.23;100.00;95672.56;5052123;28;20262;-78
2022/12/08 04:16:51;;;;;;;4.43;2.73;;;;;;;-1.31;100.00;95664.66;5057129;28;20210;-79
2022/12/08 04:19:18;;;;;;;4.33;2.80;;;;;;;-1.28;100.00;95664.34;5043956;28;20268;-79
2022/12/08 04:21:45;;;;;;;4.63;2.40;;;;;;;-1.31;100.00;95665.50;5046075;28;20263;-78
2022/12/08 04:24:12;;;;;;;3.20;2.13;;;;;;;-1.34;100.00;95663.19;5049626;28;20209;-78
2022/12/08 04:26:39;;;;;;;4.27;2.50;;;;;;;-1.38;100.00;95659.25;5046742;28;20202;-78
2022/12/08 04:29:08;;;;;;;4.57;2.47;;;;;;;-1.37;100.00;95654.78;5063473;28;20193;-78
2022/12/08 04:31:35;;;;;;;4.13;2.30;;;;;;;-1.40;100.00;95649.81;5046416;28;20202;-78
2022/12/08 04:34:02;;;;;;;3.17;2.20;;;;;;;-1.41;100.00;95654.28;5042531;28;20241;-78
2022/12/08 04:36:29;;;;;;;3.07;2.17;;;;;;;-1.47;100.00;95644.41;5053091;28;20198;-78
2022/12/08 04:38:56;;;;;;;3.50;2.50;;;;;;;-1.43;100.00;95648.34;5048908;28;20201;-78
2022/12/08 04:41:23;;;;;;;2.80;2.00;;;;;;;-1.40;100.00;95644.53;5052628;28;20194;-78
2022/12/08 04:43:50;;;;;;;4.93;2.77;;;;;;;-1.38;100.00;95640.72;5055676;28;20258;-79
2022/12/08 04:46:19;;;;;;;3.83;2.37;;;;;;;-1.44;100.00;95637.91;5051999;28;20205;-79
2022/12/08 04:48:46;;;;;;;3.97;2.63;;;;;;;-1.41;100.00;95643.69;5050726;28;20198;-78
2022/12/08 04:51:16;;;;;;;3.10;2.40;;;;;;;-1.46;100.00;95632.81;5039147;28;20194;-78
2022/12/08 04:53:44;;;;;;;3.67;2.60;;;;;;;-1.43;100.00;95643.03;5052352;28;20249;-79
2022/12/08 04:56:13;;;;;;;3.73;2.57;;;;;;;-1.39;100.00;95639.06;5055063;28;20202;-79
2022/12/08 04:58:40;;;;;;;3.67;2.40;;;;;;;-1.43;100.00;95626.31;5050100;28;20205;-79
2022/12/08 05:01:07;;;;;;;4.63;2.80;;;;;;;-1.38;100.00;95642.53;5049793;28;20208;-79
2022/12/08 05:03:36;;;;;;;3.57;2.70;;;;;;;-1.41;100.00;95641.03;5043971;28;20217;-79
2022/12/08 05:06:04;;;;;;;4.60;2.80;;;;;;;-1.41;100.00;95645.53;5054037;28;20205;-79
2022/12/08 05:08:32;;;;;;;4.33;2.70;;;;;;;-1.43;100.00;95643.03;5050956;28;20217;-79
2022/12/08 05:11:03;;;;;;;3.47;2.53;;;;;;;-1.45;100.00;95633.63;5068966;28;20225;-79
2022/12/08 05:13:31;;;;;;;4.10;2.60;;;;;;;-1.46;100.00;95637.28;5051348;28;20334;-79
2022/12/08 05:16:03;;;;;;;6.17;2.80;;;;;;;-1.52;100.00;95647.56;5048198;28;20205;-79
2022/12/08 05:18:31;;;;;;;5.07;2.47;;;;;;;-1.57;100.00;95636.66;5045383;28;20493;-79
2022/12/08 05:21:00;;;;;;;3.30;2.30;;;;;;;-1.54;100.00;95632.84;5053734;28;20210;-79
2022/12/08 05:23:28;;;;;;;3.67;2.17;;;;;;;-1.49;100.00;95633.16;5038072;28;20237;-79
2022/12/08 05:25:55;;;;;;;4.87;2.30;;;;;;;-1.62;100.00;95631.06;5049367;28;20201;-79
2022/12/08 05:28:22;;;;;;;4.00;2.80;;;;;;;-1.66;100.00;95645.63;5053687;28;20251;-79
2022/12/08 05:30:49;;;;;;;3.60;2.37;;;;;;;-1.71;100.00;95628.63;5044378;28;20209;-79
2022/12/08 05:33:17;;;;;;;3.57;2.60;;;;;;;-1.70;100.00;95641.66;5053387;28;20240;-80
2022/12/08 05:35:44;;;;;;;3.53;2.47;;;;;;;-1.65;100.00;95639.34;5051066;28;20197;-80
2022/12/08 05:38:13;;;;;;;3.97;2.43;;;;;;;-1.63;100.00;95637.38;5064499;28;20209;-80
2022/12/08 05:40:42;;;;;;;3.77;2.63;;;;;;;-1.57;100.00;95649.06;5045074;28;20221;-80
2022/12/08 05:43:10;;;;;;;4.03;2.77;;;;;;;-1.57;100.00;95643.78;5051633;28;20218;-80
2022/12/08 05:45:37;;;;;;;3.90;2.47;;;;;;;-1.62;100.00;95635.53;5052511;28;20204;-80
2022/12/08 05:48:06;;;;;;;7.73;4.70;;;;;;;-1.73;100.00;95633.28;5045633;28;20192;-80
2022/12/08 05:50:33;;;;;;;7.27;4.50;;;;;;;-1.76;100.00;95631.78;5045998;28;20198;-80
2022/12/08 05:53:00;;;;;;;6.40;4.20;;;;;;;-1.80;100.00;95627.84;5054697;28;20211;-80
2022/12/08 05:55:28;;;;;;;8.43;5.00;;;;;;;-1.79;100.00;95632.16;5053560;28;20202;-80
2022/12/08 05:57:55;;;;;;;8.27;4.60;;;;;;;-1.81;100.00;95620.91;5042887;28;20236;-80
2022/12/08 06:00:22;;;;;;;7.47;4.40;;;;;;;-1.81;100.00;95628.00;5047958;28;20285;-80
2022/12/08 06:02:49;;;;;;;6.03;4.00;;;;;;;-1.79;100.00;95624.22;5054186;28;20263;-80
2022/12/08 06:05:16;;;;;;;5.80;3.80;;;;;;;-1.74;100.00;95634.25;5045574;28;20198;-80
2022/12/08 06:07:43;;;;;;;6.67;3.97;;;;;;;-1.84;100.00;95634.47;5052542;28;20198;-80
2022/12/08 06:10:11;;;;;;;4.73;2.83;;;;;;;-1.87;100.00;95623.41;5048341;28;20221;-81
2022/12/08 06:12:40;;;;;;;4.17;3.10;;;;;;;-1.78;100.00;95652.28;5054153;28;20201;-80
2022/12/08 06:15:08;;;;;;;5.20;3.33;;;;;;;-1.81;100.00;95649.19;5054089;28;20197;-80
2022/12/08 06:17:35;;;;;;;4.93;3.40;;;;;;;-1.86;100.00;95649.69;5053814;28;20267;-80
2022/12/08 06:20:03;;;;;;;6.30;3.53;;;;;;;-1.87;100.00;95652.53;5052509;28;20244;-81
2022/12/08 06:22:30;;;;;;;5.33;3.47;;;;;;;-1.85;100.00;95648.69;5052389;28;20235;-80
2022/12/08 06:24:57;;;;;;;5.10;3.23;;;;;;;-1.93;100.00;95640.78;5052747;28;20210;-81
2022/12/08 06:27:24;;;;;;;4.80;3.47;;;;;;;-1.97;100.00;95632.38;5046217;28;20229;-81
2022/12/08 06:29:53;;;;;;;4.60;3.20;;;;;;;-1.93;100.00;95643.41;5048391;28;20303;-81
2022/12/08 06:32:20;;;;;;;7.20;3.80;;;;;;;-1.90;100.00;95648.38;5039890;28;20268;-81
2022/12/08 06:34:47;;;;;;;6.17;3.40;;;;;;;-1.96;100.00;95644.56;5047698;28;20220;-81
2022/12/08 06:37:14;;;;;;;5.87;3.47;;;;;;;-1.88;100.00;95650.88;5050670;28;20299;-82
2022/12/08 06:39:41;;;;;;;5.57;3.07;;;;;;;-1.87;100.00;95645.38;5051690;28;20206;-81
2022/12/08 06:44:54;;;;;;;12.33;7.60;;;;;;;-1.90;100.00;95643.09;5044933;28;20208;-81
2022/12/08 06:47:21;;;;;;;9.57;5.20;;;;;;;-1.88;100.00;95646.41;5065473;28;20194;-82
2022/12/08 06:49:49;;;;;;;7.90;4.67;;;;;;;-1.86;100.00;95652.31;5051897;28;20259;-82
2022/12/08 06:52:16;;;;;;;6.30;3.30;;;;;;;-1.79;100.00;95648.03;5049384;28;20205;-82
2022/12/08 06:54:43;;;;;;;6.97;4.80;;;;;;;-1.78;100.00;95644.34;5040198;28;20209;-82
2022/12/08 06:57:10;;;;;;;8.63;5.20;;;;;;;-1.76;100.00;95649.47;5035404;28;20205;-82
2022/12/08 06:59:38;;;;;;;7.57;4.20;;;;;;;-1.79;100.00;95650.66;5051630;28;20201;-81
2022/12/08 07:02:07;;;;;;;6.10;3.47;;;;;;;-1.77;100.00;95648.66;5051417;28;20211;-82
2022/12/08 07:04:34;;;;;;;5.47;3.50;;;;;;;-1.78;100.00;95652.28;5057154;28;20293;-82
2022/12/08 07:07:01;;;;;;;7.17;4.50;;;;;;;-1.82;100.00;95643.06;5042418;28;20202;-82
2022/12/08 07:09:28;;;;;;;8.20;4.27;;;;;;;-1.84;100.00;95652.16;5046885;28;20213;-82
2022/12/08 07:11:55;;;;;;;6.27;3.83;;;;;;;-1.84;100.00;95658.28;5049287;28;20225;-82
2022/12/08 07:14:23;;;;;;;4.43;3.37;;;;;;;-1.83;100.00;95667.03;5052094;28;20250;-82
2022/12/08 07:16:51;;;;;;;6.83;3.80;;;;;;;-1.85;100.00;95666.38;5049751;28;20192;-82
2022/12/08 07:19:19;;;;;;;4.97;3.63;;;;;;;-1.85;100.00;95669.84;5041890;28;20263;-82
2022/12/08 07:21:46;;;;;;;6.47;3.80;;;;;;;-1.79;100.00;95671.84;5045099;28;20205;-82
2022/12/08 07:24:14;;;;;;;8.83;4.10;;;;;;;-1.78;100.00;95678.75;5044543;28;20318;-82
2022/12/08 07:26:41;;;;;;;5.63;3.77;;;;;;;-1.78;100.00;95667.34;5045842;28;20207;-82
2022/12/08 07:29:10;;;;;;;5.37;3.60;;;;;;;-1.78;100.00;95670.81;5050668;28;20204;-81
2022/12/08 07:31:37;;;;;;;5.20;3.17;;;;;;;-1.72;100.00;95677.25;5049610;28;20202;-82
2022/12/08 07:34:05;;;;;;;7.03;3.60;;;;;;;-1.70;100.00;95676.06;5053226;28;20202;-82
2022/12/08 07:36:34;;;;;;;6.13;3.73;;;;;;;-1.71;100.00;95674.47;5044784;28;20202;-81
2022/12/08 07:39:01;;;;;;;4.90;3.23;;;;;;;-1.69;100.00;95671.59;5047810;28;20296;-82
2022/12/08 07:41:28;;;;;;;5.20;3.63;;;;;;;-1.71;100.00;95677.09;5050083;28;20204;-81
2022/12/08 07:43:56;;;;;;;6.23;3.20;;;;;;;-1.72;100.00;95670.16;5051374;28;20301;-82
2022/12/08 07:46:25;;;;;;;8.70;4.20;;;;;;;-1.68;100.00;95666.16;5068472;28;20205;-82
2022/12/08 07:48:53;;;;;;;5.70;3.83;;;;;;;-1.72;100.00;95659.56;5048007;28;20217;-82
2022/12/08 07:51:20;;;;;;;7.67;4.90;;;;;;;-1.72;100.00;95654.28;5049351;28;20240;-82
2022/12/08 07:53:50;;;;;;;5.03;3.37;;;;;;;-1.70;100.00;95660.19;5057644;28;20213;-82
2022/12/08 07:56:17;;;;;;;7.83;3.90;;;;;;;-1.78;100.00;95652.28;5052899;28;20200;-81
2022/12/08 07:58:45;;;;;;;8.70;4.33;;;;;;;-1.77;100.00;95651.31;5050542;28;20218;-81
2022/12/08 08:01:24;;;;;;;6.47;4.10;;;;;;;-1.65;100.00;95667.63;5047971;28;20204;-82
2022/12/08 08:03:52;;;;;;;6.60;4.20;;;;;;;-1.66;100.00;95664.16;5051582;28;20247;-82
2022/12/08 08:06:19;;;;;;;8.73;5.10;;;;;;;-1.63;100.00;95663.00;5047026;28;20205;-81
2022/12/08 08:08:46;;;;;;;9.53;5.70;;;;;;;-1.56;100.00;95667.44;5051508;28;20200;-81
2022/12/08 08:11:14;;;;;;;10.13;5.57;;;;;;;-1.59;100.00;95667.78;5067754;28;20236;-81
2022/12/08 08:13:42;;;;;;;9.23;4.77;;;;;;;-1.55;100.00;95663.78;5046771;28;20213;-81
2022/12/08 08:16:12;;;;;;;7.77;5.33;;;;;;;-1.47;100.00;95667.41;5040171;28;20205;-81
2022/12/08 08:18:40;;;;;;;8.27;4.63;;;;;;;-1.47;100.00;95675.34;5049575;28;20229;-81
2022/12/08 08:21:07;;;;;;;8.13;4.83;;;;;;;-1.42;100.00;95667.69;5067947;28;20204;-81
2022/12/08 08:23:35;;;;;;;8.50;5.53;;;;;;;-1.48;100.00;95647.22;5040911;28;20218;-81
2022/12/08 08:26:06;;;;;;;9.03;4.80;;;;;;;-1.44;100.00;95653.78;5043941;28;20210;-82
2022/12/08 08:28:36;;;;;;;7.73;3.97;;;;;;;-1.57;100.00;95649.91;5051812;28;20237;-81
2022/12/08 08:31:03;;;;;;;6.03;4.10;;;;;;;-1.59;100.00;95636.00;5041296;28;20289;-81
2022/12/08 08:33:31;;;;;;;11.40;5.10;;;;;;;-1.60;100.00;95639.66;5047793;28;20296;-81
2022/12/08 08:35:58;;;;;;;8.17;4.93;;;;;;;-1.56;100.00;95645.44;5038610;28;20193;-81
2022/12/08 08:38:25;;;;;;;8.10;4.23;;;;;;;-1.60;100.00;95636.16;5050883;28;20239;-81
2022/12/08 08:40:52;;;;;;;6.90;4.60;;;;;;;-1.71;100.00;95636.56;5049545;28;20197;-81
2022/12/08 08:43:29;;;;;;;7.50;4.70;;;;;;;-1.69;100.00;95627.44;5049770;28;20253;-82
2022/12/08 08:45:59;;;;;;;9.03;5.07;;;;;;;-1.52;100.00;95630.84;5048865;28;20212;-82
2022/12/08 08:48:27;;;;;;;6.40;4.30;;;;;;;-1.45;100.00;95631.00;5064163;28;20232;-81
2022/12/08 08:50:56;;;;;;;6.83;4.63;;;;;;;-1.48;100.00;95615.44;5039786;28;20229;-82
2022/12/08 08:53:24;;;;;;;9.37;5.00;;;;;;;-1.29;100.00;95628.25;5042008;28;20234;-81
2022/12/08 08:55:52;;;;;;;7.77;4.93;;;;;;;-1.26;100.00;95615.47;5062941;28;20212;-79
2022/12/08 08:58:19;;;;;;;8.67;4.90;;;;;;;-1.05;100.00;95622.78;5045085;28;20209;-79
2022/12/08 09:00:47;;;;;;;8.27;4.90;;;;;;;-0.95;100.00;95607.47;5058257;28;20216;-79
2022/12/08 09:03:17;;;;;;;9.77;4.57;;;;;;;-0.77;100.00;95604.53;5043135;28;20205;-79
2022/12/08 09:05:45;;;;;;;7.97;5.27;;;;;;;-0.54;100.00;95604.47;5052635;28;20253;-82
2022/12/08 09:08:12;;;;;;;7.43;4.60;;;;;;;-0.48;100.00;95598.44;5066430;28;20235;-80
2022/12/08 09:10:39;;;;;;;8.27;4.93;;;;;;;-0.40;100.00;95611.63;5052191;28;20218;-81
2022/12/08 09:13:06;;;;;;;8.10;4.83;;;;;;;-0.34;100.00;95605.59;5045726;28;20205;-81
2022/12/08 09:15:33;;;;;;;9.40;5.40;;;;;;;-0.27;100.00;95592.44;5045232;28;20208;-81
2022/12/08 09:18:00;;;;;;;6.97;4.07;;;;;;;-0.29;100.00;95591.81;5041473;28;20206;-81
2022/12/08 09:20:29;;;;;;;7.33;4.20;;;;;;;-0.20;100.00;95588.06;5048050;28;20236;-81
2022/12/08 09:22:56;;;;;;;7.70;4.07;;;;;;;-0.12;100.00;95595.94;5046660;28;20254;-81
2022/12/08 09:25:23;;;;;;;7.83;4.47;;;;;;;-0.05;100.00;95594.19;5053334;28;20285;-81
2022/12/08 09:27:50;;;;;;;7.37;4.43;;;;;;;-0.02;100.00;95583.22;5053827;28;20201;-81
2022/12/08 09:30:17;;;;;;;8.03;5.13;;;;;;;0.01;100.00;95585.50;5052390;28;20289;-81
2022/12/08 09:32:46;;;;;;;11.57;5.70;;;;;;;0.13;100.00;95573.41;5050568;28;20201;-81
2022/12/08 09:35:13;;;;;;;9.07;5.27;;;;;;;0.17;100.00;95571.22;5052266;28;20205;-81
2022/12/08 09:37:41;;;;;;;7.70;4.83;;;;;;;0.27;100.00;95569.06;5047887;28;20217;-81
2022/12/08 09:40:11;;;;;;;9.17;5.00;;;;;;;0.45;100.00;95569.50;5052115;28;20206;-81
2022/12/08 09:42:48;;;;;;;6.13;4.00;;;;;;;0.54;100.00;95573.69;5064032;28;20205;-81
2022/12/08 09:45:18;;;;;;;5.33;3.70;;;;;;;0.53;100.00;95558.75;5050289;28;20230;-80
2022/12/08 09:48:01;;;;;;;4.63;3.20;;;;;;;0.70;100.00;95562.84;5052914;28;20190;-80
2022/12/08 09:50:34;;;;;;;7.20;4.17;;;;;;;0.83;100.00;95561.34;5042136;28;20203;-80
2022/12/08 09:53:06;;;;;;;6.07;3.70;;;;;;;0.98;100.00;95567.41;5046166;28;20212;-80
2022/12/08 09:55:41;;;;;;;7.03;3.73;;;;;;;1.07;100.00;95545.84;5051991;28;20219;-80
2022/12/08 09:58:21;;;;;;;7.13;3.97;;;;;;;1.24;100.00;95546.38;5052525;28;20238;-80
2022/12/08 10:00:49;;;;;;;6.17;4.10;;;;;;;1.38;100.00;95549.97;5053507;28;20203;-80
2022/12/08 10:03:17;;;;;;;6.23;3.93;;;;;;;1.53;100.00;95556.81;5063678;28;20202;-80
2022/12/08 10:05:54;;;;;;;4.87;3.20;;;;;;;1.61;100.00;95536.44;5053068;28;20220;-80
2022/12/08 10:08:30;;;;;;;5.47;4.00;;;;;;;1.70;100.00;95540.59;5052308;28;20211;-80
2022/12/08 10:11:03;;;;;;;6.97;4.10;;;;;;;1.76;100.00;95542.47;5048694;28;20233;-80
2022/12/08 10:13:39;;;;;;;5.93;3.97;;;;;;;1.75;100.00;95533.66;5038025;28;20198;-80
2022/12/08 10:16:24;;;;;;;5.63;3.53;;;;;;;1.62;100.00;95520.25;5047936;28;20198;-80
2022/12/08 10:18:57;;;;;;;5.33;3.50;;;;;;;1.75;100.00;95514.19;5065701;28;20234;-80
2022/12/08 10:21:30;;;;;;;5.37;3.87;;;;;;;1.93;100.00;95514.50;5066522;28;20193;-80
2022/12/08 10:24:03;;;;;;;6.87;4.13;;;;;;;2.09;100.00;95500.03;5044948;28;20221;-80
2022/12/08 10:26:34;;;;;;;6.97;4.47;;;;;;;2.32;100.00;95484.53;5052037;28;20213;-79
2022/12/08 10:29:02;;;;;;;6.60;4.00;;;;;;;2.60;100.00;95492.41;5045875;28;20268;-79
2022/12/08 10:31:31;;;;;;;7.03;3.67;;;;;;;2.80;100.00;95498.63;5044067;28;20200;-80
2022/12/08 10:34:00;;;;;;;6.57;3.70;;;;;;;3.02;100.00;95488.59;5049290;28;20202;-80
2022/12/08 10:36:46;;;;;;;6.47;3.90;;;;;;;3.29;100.00;95494.75;5054721;28;20198;-79
2022/12/08 10:39:34;;;;;;;6.50;3.77;;;;;;;3.52;97.25;95491.63;5051805;28;20604;-79
2022/12/08 10:42:08;;;;;;;6.23;3.90;;;;;;;3.44;96.51;95500.69;5046142;28;20300;-79
2022/12/08 10:44:49;;;;;;;5.93;4.00;;;;;;;3.47;96.68;95486.94;5046237;28;20233;-79
2022/12/08 10:47:21;;;;;;;5.40;3.77;;;;;;;3.63;95.01;95475.81;5050837;28;20216;-79
2022/12/08 10:49:48;;;;;;;6.73;4.20;;;;;;;3.90;92.48;95481.09;5046552;28;20209;-79
2022/12/08 10:52:23;;;;;;;4.63;3.73;;;;;;;4.26;91.89;95478.69;5052566;28;20202;-79
2022/12/08 10:54:54;;;;;;;6.37;3.70;;;;;;;4.31;90.02;95468.19;5052604;28;20356;-79
2022/12/08 10:57:24;;;;;;;6.23;3.67;;;;;;;4.22;90.71;95474.00;5048830;28;20202;-79
2022/12/08 10:59:54;;;;;;;7.00;4.63;;;;;;;4.19;90.61;95472.56;5043545;28;20202;-79
2022/12/08 11:02:22;;;;;;;6.80;4.40;;;;;;;4.05;91.78;95465.63;5053321;28;20205;-79
2022/12/08 11:04:58;;;;;;;6.10;3.97;;;;;;;4.22;90.58;95464.13;5053889;28;20225;-79
2022/12/08 11:07:26;;;;;;;10.23;5.57;;;;;;;4.45;91.87;95456.41;5052464;28;20205;-79
2022/12/08 11:09:57;;;;;;;7.77;4.00;;;;;;;4.28;91.27;95444.56;5050067;28;20288;-80
2022/12/08 11:12:27;;;;;;;5.77;4.10;;;;;;;4.29;92.20;95440.88;5053429;28;20231;-80
2022/12/08 11:15:01;;;;;;;7.60;4.60;;;;;;;4.40;92.17;95447.41;5047219;28;20222;-80
2022/12/08 11:17:38;;;;;;;8.23;4.30;;;;;;;4.77;91.44;95453.75;5067374;28;20205;-80
2022/12/08 11:20:21;;;;;;;6.20;4.10;;;;;;;5.04;87.71;95447.16;5044186;28;20268;-79
2022/12/08 11:22:53;;;;;;;5.73;4.07;;;;;;;4.66;89.11;95433.06;5056142;28;20202;-79
2022/12/08 11:25:24;;;;;;;5.13;3.83;;;;;;;4.64;89.71;95435.94;5051292;28;20255;-79
2022/12/08 11:27:54;;;;;;;6.13;3.87;;;;;;;4.51;89.49;95427.97;5050757;28;20201;-79
2022/12/08 11:30:23;;;;;;;7.90;4.60;;;;;;;4.33;91.14;95433.25;5050906;28;20228;-79
2022/12/08 11:32:56;;;;;;;7.10;4.53;;;;;;;4.22;91.71;95431.25;5046031;28;20203;-79
2022/12/08 11:35:28;;;;;;;7.47;4.50;;;;;;;4.21;91.44;95427.75;5045287;28;20210;-79
2022/12/08 11:38:10;;;;;;;6.67;4.30;;;;;;;4.24;91.62;95422.00;5063054;28;20344;-79
2022/12/08 11:40:42;;;;;;;7.43;4.17;;;;;;;4.04;90.55;95429.28;5052065;28;20206;-80
2022/12/08 11:43:16;;;;;;;4.87;3.80;;;;;;;4.00;90.47;95425.38;5068302;28;20205;-80
2022/12/08 11:45:44;;;;;;;6.07;3.60;;;;;;;3.99;91.68;95421.09;5044392;28;20242;-80
2022/12/08 11:48:17;;;;;;;6.10;4.07;;;;;;;4.29;90.21;95424.00;5053366;28;20208;-79